Time;durP1;ratioP1;P1;durP2;ratioP2;P2;SDS_P1;SDS_P2;PMS_P1;PMS_P2;Temp;Humidity;BMP_temperature;BMP_pressure;BME280_temperature;BME280_humidity;BME280_pressure;Samples;Min_cycle;Max_cycle;Signal;HPM_P1;HPM_P2
2021/11/30 06:44:12;;;;;;;0.47;0.47;;;;;;;2.32;67.70;97897.28;5109804;27;20351;-73
2021/11/30 06:46:38;;;;;;;1.35;0.55;;;;;;;2.48;68.96;97909.63;5110236;28;20071;-75
2021/11/30 06:49:04;;;;;;;0.38;0.38;;;;;;;2.60;69.72;97880.84;5110240;28;20158;-73
2021/11/30 06:51:30;;;;;;;0.25;0.25;;;;;;;2.74;70.28;97876.31;5110692;28;20036;-74
2021/11/30 06:53:56;;;;;;;0.35;0.35;;;;;;;2.87;70.80;97880.91;5110378;28;20085;-75
2021/11/30 06:56:22;;;;;;;0.30;0.30;;;;;;;2.98;71.19;97871.31;5110284;28;20517;-74
2021/11/30 06:58:47;;;;;;;1.08;0.98;;;;;;;3.09;71.37;97862.53;5110324;28;20039;-74
2021/11/30 07:01:13;;;;;;;0.73;0.73;;;;;;;3.19;71.58;97855.84;5110928;28;20069;-73
2021/11/30 07:03:43;;;;;;;0.40;0.40;;;;;;;3.29;71.74;97856.25;5111802;28;20059;-73
2021/11/30 07:06:22;;;;;;;0.63;0.63;;;;;;;3.38;71.66;97854.16;5110978;28;20036;-73
2021/11/30 07:13:58;;;;;;;0.43;0.43;;;;;;;3.44;72.26;97826.97;5110578;28;20116;-75
2021/11/30 07:16:24;;;;;;;0.38;0.38;;;;;;;3.48;72.42;97816.53;5110005;28;20040;-74
2021/11/30 07:18:50;;;;;;;1.55;0.40;;;;;;;3.50;72.51;97822.56;5108790;28;20028;-73
2021/11/30 07:21:15;;;;;;;0.55;0.55;;;;;;;3.51;72.51;97811.50;5109391;28;20032;-73
2021/11/30 07:23:42;;;;;;;0.30;0.30;;;;;;;3.53;72.54;97796.91;5109493;28;20048;-74
2021/11/30 07:26:07;;;;;;;0.40;0.40;;;;;;;3.55;72.64;97792.06;5108737;28;20032;-74
2021/11/30 07:28:34;;;;;;;0.45;0.45;;;;;;;3.63;72.61;97795.38;5110412;28;20111;-74
2021/11/30 07:31:10;;;;;;;0.65;0.65;;;;;;;3.73;72.48;97784.06;5109158;28;20057;-73
2021/11/30 07:33:42;;;;;;;0.50;0.50;;;;;;;3.76;72.32;97775.50;5111417;28;20059;-74
2021/11/30 07:36:11;;;;;;;0.40;0.40;;;;;;;3.81;72.33;97777.56;5111329;28;20030;-74
2021/11/30 07:38:38;;;;;;;1.02;0.50;;;;;;;3.85;72.35;97752.44;5110918;28;20070;-74
2021/11/30 07:41:05;;;;;;;0.40;0.40;;;;;;;3.85;72.33;97744.31;5109215;28;20035;-74
2021/11/30 07:43:31;;;;;;;0.95;0.73;;;;;;;3.88;72.44;97745.75;5109576;28;20064;-75
2021/11/30 07:45:57;;;;;;;0.50;0.50;;;;;;;3.90;72.44;97745.53;5109164;28;20044;-74
2021/11/30 07:48:23;;;;;;;2.33;0.47;;;;;;;3.90;72.37;97730.09;5109263;28;20032;-74
2021/11/30 07:50:50;;;;;;;2.45;0.55;;;;;;;3.90;72.67;97724.66;5108931;28;20437;-73
2021/11/30 07:53:17;;;;;;;0.25;0.25;;;;;;;3.90;72.52;97727.38;5108787;28;20062;-74
2021/11/30 07:55:43;;;;;;;0.68;0.68;;;;;;;3.90;72.37;97712.97;5095070;28;20039;-75
2021/11/30 07:58:09;;;;;;;0.43;0.43;;;;;;;3.90;72.54;97710.25;5095723;28;20028;-74
2021/11/30 08:00:35;;;;;;;0.77;0.77;;;;;;;3.92;72.54;97713.59;5095842;28;20067;-74
2021/11/30 08:03:02;;;;;;;0.30;0.30;;;;;;;3.92;72.49;97713.59;5095145;28;20044;-74
2021/11/30 08:05:27;;;;;;;0.30;0.30;;;;;;;3.94;72.45;97706.84;5095626;28;20379;-76
2021/11/30 08:07:53;;;;;;;0.90;0.75;;;;;;;3.92;72.52;97702.72;5096302;28;20034;-75
2021/11/30 08:10:21;;;;;;;0.75;0.40;;;;;;;3.91;72.34;97701.06;5097366;28;20028;-74
2021/11/30 08:12:47;;;;;;;0.55;0.43;;;;;;;3.95;72.47;97702.28;5096256;28;20032;-75
2021/11/30 08:15:15;;;;;;;0.80;0.38;;;;;;;3.96;72.43;97710.22;5095777;28;20043;-74
2021/11/30 08:17:41;;;;;;;0.57;0.47;;;;;;;3.97;72.43;97722.72;5095482;28;20036;-74
2021/11/30 08:20:08;;;;;;;2.22;1.48;;;;;;;3.95;72.40;97724.84;5095263;28;20109;-74
2021/11/30 08:22:35;;;;;;;1.48;0.65;;;;;;;3.91;72.47;97723.59;5095293;28;20027;-77
2021/11/30 08:25:01;;;;;;;0.68;0.68;;;;;;;3.88;72.49;97720.50;5095024;28;20097;-76
2021/11/30 08:27:27;;;;;;;0.40;0.40;;;;;;;3.90;72.41;97704.81;5095640;28;20039;-78
2021/11/30 08:29:53;;;;;;;1.13;0.63;;;;;;;3.88;72.36;97706.94;5095761;28;20032;-76
2021/11/30 08:32:22;;;;;;;0.85;0.82;;;;;;;3.88;72.49;97704.22;5095430;28;20067;-78
2021/11/30 08:34:51;;;;;;;5.45;0.50;;;;;;;3.91;72.54;97714.63;5096713;28;20063;-78
2021/11/30 08:37:18;;;;;;;0.40;0.40;;;;;;;3.87;72.27;97711.50;5096217;28;20036;-76
2021/11/30 08:39:47;;;;;;;0.20;0.20;;;;;;;3.84;72.41;97711.94;5096832;28;20104;-76
2021/11/30 08:42:14;;;;;;;0.65;0.47;;;;;;;3.82;72.47;97714.06;5097826;28;20059;-78
2021/11/30 08:44:40;;;;;;;0.52;0.52;;;;;;;3.80;72.50;97703.41;5098628;28;20062;-75
2021/11/30 08:47:08;;;;;;;0.32;0.32;;;;;;;3.79;72.40;97693.59;5096865;28;20494;-78
2021/11/30 08:49:34;;;;;;;0.55;0.55;;;;;;;3.79;72.50;97688.16;5104891;28;20527;-77
2021/11/30 08:52:00;;;;;;;1.15;0.95;;;;;;;3.77;72.61;97679.41;5108320;28;20040;-75
2021/11/30 08:54:28;;;;;;;0.40;0.40;;;;;;;3.76;72.52;97666.88;5108585;28;20028;-76
2021/11/30 08:56:54;;;;;;;0.30;0.30;;;;;;;3.75;72.51;97672.53;5113902;28;20028;-76
2021/11/30 08:59:20;;;;;;;0.30;0.30;;;;;;;3.72;72.54;97676.50;5111913;28;20137;-76
2021/11/30 09:01:46;;;;;;;0.30;0.30;;;;;;;3.73;72.56;97663.78;5116179;28;20057;-74
2021/11/30 09:04:12;;;;;;;0.55;0.55;;;;;;;3.70;72.50;97670.47;5117660;28;20047;-72
2021/11/30 09:06:38;;;;;;;0.50;0.47;;;;;;;3.68;72.52;97669.84;5115281;28;20051;-74
2021/11/30 09:09:10;;;;;;;0.82;0.82;;;;;;;3.71;72.52;97664.00;5115688;28;20028;-74
2021/11/30 09:11:36;;;;;;;1.50;0.60;;;;;;;3.73;72.47;97655.66;5107480;28;20403;-76
2021/11/30 09:14:03;;;;;;;0.30;0.30;;;;;;;3.75;72.37;97665.22;5095360;28;20043;-74
2021/11/30 09:16:29;;;;;;;1.23;0.57;;;;;;;3.77;72.36;97663.13;5094715;28;20476;-77
2021/11/30 09:18:56;;;;;;;0.30;0.30;;;;;;;3.81;72.21;97669.78;5094452;28;20036;-75
2021/11/30 09:21:22;;;;;;;0.25;0.25;;;;;;;3.84;72.07;97653.06;5094148;28;20032;-77
2021/11/30 09:23:48;;;;;;;0.65;0.65;;;;;;;3.89;72.05;97648.81;5094028;28;20032;-76
2021/11/30 09:26:14;;;;;;;1.45;1.00;;;;;;;3.94;71.95;97640.84;5094067;28;20035;-75
2021/11/30 09:28:40;;;;;;;1.88;0.88;;;;;;;3.98;71.77;97642.09;5096227;28;20035;-76
2021/11/30 09:31:07;;;;;;;0.30;0.30;;;;;;;4.03;71.78;97640.38;5094131;28;20027;-78
2021/11/30 09:33:33;;;;;;;0.30;0.30;;;;;;;4.03;71.70;97632.22;5110915;28;20548;-73
2021/11/30 09:35:59;;;;;;;0.30;0.30;;;;;;;4.01;71.74;97634.31;5114164;28;20020;-81
2021/11/30 09:38:27;;;;;;;1.08;0.68;;;;;;;3.96;71.93;97617.88;5114083;28;20073;-77
2021/11/30 09:40:58;;;;;;;0.47;0.47;;;;;;;3.97;71.84;97607.81;5114109;28;20171;-71
2021/11/30 09:43:25;;;;;;;0.20;0.20;;;;;;;3.97;71.86;97599.69;5114933;28;20055;-73
2021/11/30 09:45:54;;;;;;;0.25;0.25;;;;;;;3.97;71.91;97591.53;5112872;28;20027;-75
2021/11/30 09:48:21;;;;;;;0.30;0.30;;;;;;;3.98;71.90;97583.16;5102688;28;20390;-75
2021/11/30 09:50:47;;;;;;;0.28;0.28;;;;;;;3.97;71.94;97583.38;5092686;28;20047;-75
2021/11/30 09:53:14;;;;;;;0.20;0.20;;;;;;;3.97;72.02;97569.81;5086744;28;20028;-75
2021/11/30 09:55:41;;;;;;;0.30;0.30;;;;;;;3.96;71.91;97571.69;5088610;28;20024;-76
2021/11/30 09:58:08;;;;;;;0.40;0.40;;;;;;;3.95;71.95;97572.75;5089681;28;20036;-76
2021/11/30 10:00:34;;;;;;;0.52;0.52;;;;;;;3.95;72.01;97561.06;5089981;28;20032;-77
2021/11/30 10:03:01;;;;;;;0.73;0.60;;;;;;;3.94;71.97;97560.19;5090281;28;20561;-76
2021/11/30 10:05:29;;;;;;;0.60;0.40;;;;;;;3.95;71.90;97555.63;5090776;28;20485;-77
2021/11/30 10:07:55;;;;;;;0.20;0.20;;;;;;;3.93;72.01;97544.13;5090771;28;20077;-75
2021/11/30 10:10:35;;;;;;;0.50;0.50;;;;;;;3.90;71.92;97547.31;5090676;28;20413;-75
2021/11/30 10:13:04;;;;;;;0.30;0.30;;;;;;;3.84;72.00;97539.00;5087685;28;20024;-76
2021/11/30 10:15:51;;;;;;;0.25;0.25;;;;;;;3.83;72.10;97528.38;5090862;28;20036;-73
2021/11/30 10:18:27;;;;;;;0.20;0.20;;;;;;;3.79;72.03;97533.41;5089801;28;20028;-75
2021/11/30 10:21:19;;;;;;;5.88;0.60;;;;;;;3.74;72.22;97533.25;5088902;28;20024;-77
2021/11/30 10:23:55;;;;;;;0.35;0.35;;;;;;;3.72;72.16;97546.19;5089849;28;20035;-74
2021/11/30 10:26:25;;;;;;;0.30;0.30;;;;;;;3.72;72.14;97529.09;5090571;28;20039;-76
2021/11/30 10:28:58;;;;;;;0.30;0.30;;;;;;;3.69;72.15;97524.94;5090448;28;20169;-77
2021/11/30 10:31:30;;;;;;;0.32;0.32;;;;;;;3.69;72.13;97527.63;5089701;28;20043;-73
2021/11/30 10:33:56;;;;;;;0.63;0.63;;;;;;;3.64;72.35;97519.34;5090205;28;20580;-74
2021/11/30 10:36:21;;;;;;;0.20;0.20;;;;;;;3.63;72.28;97520.41;5090849;28;20044;-75
2021/11/30 10:38:47;;;;;;;0.20;0.20;;;;;;;3.61;72.16;97509.75;5086894;28;20561;-77
2021/11/30 10:41:16;;;;;;;0.30;0.30;;;;;;;3.61;72.24;97508.94;5090516;28;20072;-78
2021/11/30 10:43:58;;;;;;;0.40;0.40;;;;;;;3.57;72.35;97500.38;5090165;28;20068;-76
2021/11/30 10:46:30;;;;;;;0.22;0.22;;;;;;;3.50;72.34;97489.59;5085260;28;20057;-76
2021/11/30 10:49:16;;;;;;;0.28;0.28;;;;;;;3.51;72.28;97485.81;5085550;28;20036;-76
2021/11/30 10:52:21;;;;;;;0.20;0.20;;;;;;;3.49;72.32;97487.13;5090315;28;20036;-73
2021/11/30 10:55:27;;;;;;;0.52;0.52;;;;;;;3.46;72.32;97469.38;5086782;28;20764;-77
2021/11/30 10:58:34;;;;;;;0.30;0.30;;;;;;;3.43;72.44;97472.56;5083824;28;20116;-75
2021/11/30 11:01:39;;;;;;;0.30;0.30;;;;;;;3.41;72.32;97457.53;5087609;28;20043;-72
2021/11/30 11:04:47;;;;;;;0.82;0.50;;;;;;;3.41;72.36;97452.09;5084430;28;20044;-76
2021/11/30 11:07:54;;;;;;;0.30;0.30;;;;;;;3.42;72.18;97423.94;5091461;28;20028;-74
2021/11/30 11:11:02;;;;;;;0.65;0.63;;;;;;;3.43;71.96;97423.72;5088707;28;20125;-77
2021/11/30 11:17:31;;;;;;;0.55;0.55;;;;;;;3.41;72.02;97420.38;5088303;28;20058;-85
2021/11/30 11:20:37;;;;;;;0.40;0.40;;;;;;;3.40;72.04;97405.16;5089936;28;20115;-80
2021/11/30 11:27:07;;;;;;;0.50;0.50;;;;;;;3.31;71.90;97404.63;5072332;28;20390;-75
2021/11/30 11:30:13;;;;;;;0.30;0.30;;;;;;;3.31;72.03;97398.34;5071070;28;20032;-82
2021/11/30 11:32:59;;;;;;;;;;;;;;;3.26;71.95;97404.44;5077262;28;20036;-82
2021/11/30 11:36:05;;;;;;;0.32;0.32;;;;;;;3.24;71.92;97382.16;5083690;28;19916;-81
2021/11/30 11:42:35;;;;;;;2.17;0.65;;;;;;;3.23;71.86;97366.09;5073308;28;20078;-76
2021/11/30 11:45:41;;;;;;;0.55;0.55;;;;;;;3.22;71.84;97367.13;5073713;28;20032;-79
2021/11/30 11:48:46;;;;;;;0.30;0.30;;;;;;;3.20;71.86;97347.56;5072117;28;20043;-76
2021/11/30 11:58:49;;;;;;;0.30;0.30;;;;;;;3.20;71.82;97313.09;5069530;28;20070;-78
2021/11/30 12:01:55;;;;;;;0.20;0.20;;;;;;;3.18;71.71;97336.06;5071314;28;20044;-80
2021/11/30 12:05:02;;;;;;;0.30;0.30;;;;;;;3.17;71.73;97329.84;5075478;28;20082;-86
2021/11/30 12:08:13;;;;;;;0.20;0.20;;;;;;;3.18;71.74;97311.66;5075621;28;20036;-78
2021/11/30 12:14:43;;;;;;;0.20;0.20;;;;;;;3.10;71.86;97313.63;5073723;28;20082;-83
2021/11/30 12:17:24;;;;;;;1.65;0.47;;;;;;;3.08;72.00;97314.91;5076402;28;20040;-86
2021/11/30 12:19:58;;;;;;;1.23;0.55;;;;;;;3.03;71.75;97299.28;5074984;28;20060;-80
2021/11/30 12:23:10;;;;;;;0.68;0.45;;;;;;;3.00;72.14;97288.06;5073884;28;20478;-81
2021/11/30 12:26:21;;;;;;;4.55;0.52;;;;;;;2.98;72.23;97289.13;5073761;28;20028;-76
2021/11/30 12:32:55;;;;;;;0.40;0.40;;;;;;;2.98;72.09;97277.44;5071822;28;20109;-88
2021/11/30 12:38:51;;;;;;;0.65;0.65;;;;;;;3.01;71.87;97251.78;5076409;28;20063;-81
2021/11/30 12:41:23;;;;;;;0.30;0.30;;;;;;;2.98;72.08;97253.88;5069404;28;20131;-78
2021/11/30 12:44:37;;;;;;;0.30;0.30;;;;;;;3.02;71.95;97245.28;5074821;28;20061;-79
2021/11/30 12:47:42;;;;;;;0.30;0.30;;;;;;;3.01;71.88;97241.75;5068054;28;20401;-74
2021/11/30 13:01:03;;;;;;;0.20;0.20;;;;;;;2.96;71.99;97230.78;5071834;28;20040;-71
2021/11/30 13:07:22;;;;;;;0.30;0.30;;;;;;;2.95;71.90;97210.13;5071083;28;20056;-67
2021/11/30 13:13:21;;;;;;;0.40;0.32;;;;;;;2.94;72.01;97201.13;5070627;28;20124;-72
2021/11/30 13:16:08;;;;;;;0.30;0.30;;;;;;;2.95;71.74;97193.84;5071548;28;20516;-66
2021/11/30 13:18:34;;;;;;;0.73;0.73;;;;;;;2.96;71.90;97187.38;5072115;28;20041;-73
2021/11/30 13:21:01;;;;;;;0.45;0.45;;;;;;;2.98;71.79;97188.78;5072243;28;20036;-72
2021/11/30 13:23:29;;;;;;;2.55;0.82;;;;;;;3.01;71.79;97190.22;5071989;28;20050;-72
2021/11/30 13:25:56;;;;;;;0.20;0.20;;;;;;;3.01;71.72;97182.09;5070922;28;20035;-73
2021/11/30 13:28:26;;;;;;;0.40;0.40;;;;;;;3.03;71.74;97171.03;5071770;28;20131;-72
